Langzhong, China
Current Conditions -  °F | °C
As of 4:00 AM on Saturday 20 Dec 2014 (Local Time) from ZUUU Reporting Station
Haze Haze  
Wind Chill: 39°   Ceiling: Unl
Heat Index: 39°   Visibility: 1.8mi
Dew Point: 36°   Wind: 0mph
Humidity: 87%   Direction: NA
Pressure: 30.18"   Gusts: NA
Location:  31.58°N, 105.97°E
Report Text: ZUUU 192000Z 00000MPS 3000 BR FEW050 04/02 Q1022 BECMGTL21302300 BR
Loading
Personal Weather Stations






























Interactive Weather Map New forecast layout! Learn more

10-Day Weather Forecast

Advertisements
Track Severe Weather on mobile